createdAt,value
2019-02-05T00:01:36.823Z,27.87
2019-02-05T00:04:07.500Z,27.33
2019-02-05T00:06:37.254Z,31.53
2019-02-05T00:09:10.219Z,31.07
2019-02-05T00:11:40.065Z,32.23
2019-02-05T00:14:09.650Z,36.17
2019-02-05T00:16:39.632Z,29.13
2019-02-05T00:19:09.255Z,28.57
2019-02-05T00:21:38.767Z,28.70
2019-02-05T00:24:08.379Z,25.00
2019-02-05T00:26:37.912Z,26.40
2019-02-05T00:29:07.368Z,29.80
2019-02-05T00:31:37.102Z,26.47
2019-02-05T00:34:06.658Z,30.77
2019-02-05T00:36:36.109Z,27.83
2019-02-05T00:39:08.434Z,31.73
2019-02-05T00:41:37.984Z,28.87
2019-02-05T00:44:07.479Z,33.23
2019-02-05T00:46:36.941Z,26.80
2019-02-05T00:49:06.427Z,28.57
2019-02-05T00:51:35.977Z,28.87
2019-02-05T00:54:05.814Z,29.53
2019-02-05T00:56:35.305Z,30.77
2019-02-05T00:59:05.133Z,27.87
2019-02-05T01:01:34.793Z,31.83
2019-02-05T01:04:05.195Z,23.50
2019-02-05T01:06:34.714Z,30.67
2019-02-05T01:09:07.313Z,28.40
2019-02-05T01:11:36.795Z,27.10
2019-02-05T01:14:06.802Z,27.73
2019-02-05T01:16:36.326Z,25.47
2019-02-05T01:19:05.997Z,27.00
2019-02-05T01:21:35.594Z,26.77
2019-02-05T01:24:05.351Z,26.50
2019-02-05T01:26:34.908Z,24.20
2019-02-05T01:29:04.435Z,25.90
2019-02-05T01:31:33.924Z,24.87
2019-02-05T01:34:03.389Z,24.60
2019-02-05T01:36:32.840Z,26.57
2019-02-05T01:39:02.427Z,24.13
2019-02-05T01:41:32.347Z,26.17
2019-02-05T01:44:01.796Z,24.00
2019-02-05T01:46:31.269Z,25.10
2019-02-05T01:49:00.837Z,26.30
2019-02-05T01:51:30.301Z,22.27
2019-02-05T01:53:59.819Z,23.27
2019-02-05T01:56:40.149Z,25.80
2019-02-05T01:59:00.886Z,25.27
2019-02-05T02:01:30.404Z,24.63
2019-02-05T02:03:59.888Z,24.20
2019-02-05T02:06:29.404Z,23.70
2019-02-05T02:08:58.882Z,22.17
2019-02-05T02:11:28.608Z,21.87
2019-02-05T02:13:58.059Z,24.60
2019-02-05T02:16:27.716Z,23.03
2019-02-05T02:18:57.165Z,25.20
2019-02-05T02:21:26.659Z,24.20
2019-02-05T02:23:56.138Z,22.00
2019-02-05T02:26:25.939Z,22.10
2019-02-05T02:28:55.551Z,24.47
2019-02-05T02:31:25.069Z,21.90
2019-02-05T02:33:54.622Z,21.57
2019-02-05T02:36:24.078Z,24.60
2019-02-05T02:38:53.566Z,26.93
2019-02-05T02:41:23.192Z,20.80
2019-02-05T02:43:52.650Z,25.67
2019-02-05T02:46:22.114Z,20.47
2019-02-05T02:48:51.619Z,22.73
2019-02-05T02:51:21.178Z,22.50
2019-02-05T02:53:50.705Z,21.30
2019-02-05T02:56:20.161Z,21.57
2019-02-05T02:58:49.616Z,22.67
2019-02-05T03:01:19.096Z,21.53
2019-02-05T03:03:48.544Z,21.77
2019-02-05T03:06:18.029Z,24.97
2019-02-05T03:08:47.474Z,24.90
2019-02-05T03:11:17.141Z,20.37
2019-02-05T03:13:46.630Z,22.10
2019-02-05T03:16:16.080Z,21.10
2019-02-05T03:18:45.574Z,20.87
2019-02-05T03:21:15.033Z,24.17
2019-02-05T03:23:44.490Z,24.90
2019-02-05T03:26:13.947Z,20.17
2019-02-05T03:28:43.693Z,22.33
2019-02-05T03:31:13.416Z,20.57
2019-02-05T03:33:42.988Z,19.90
2019-02-05T03:36:12.686Z,20.37
2019-02-05T03:38:42.272Z,20.33
2019-02-05T03:41:11.763Z,22.00
2019-02-05T03:43:41.564Z,20.97
2019-02-05T03:46:12.129Z,24.10
2019-02-05T03:48:42.890Z,23.27
2019-02-05T03:51:16.988Z,23.03
2019-02-05T03:53:53.647Z,21.90
2019-02-05T03:57:09.940Z,22.00
2019-02-05T04:00:08.378Z,20.40
2019-02-05T04:03:00.341Z,20.70
2019-02-05T04:06:02.380Z,19.87
2019-02-05T04:08:56.895Z,21.13
2019-02-05T04:11:55.475Z,20.33
2019-02-05T04:14:37.969Z,22.23
2019-02-05T04:17:38.675Z,21.67
2019-02-05T04:20:55.187Z,19.00
2019-02-05T04:23:53.263Z,18.00
2019-02-05T04:26:36.822Z,18.40
2019-02-05T04:29:42.866Z,19.17
2019-02-05T04:32:22.647Z,18.63
2019-02-05T04:35:34.387Z,22.50
2019-02-05T04:38:29.420Z,18.97
2019-02-05T04:41:12.252Z,18.90
2019-02-05T04:44:08.710Z,17.00
2019-02-05T04:47:05.095Z,17.53
2019-02-05T04:49:53.458Z,19.20
2019-02-05T04:52:48.543Z,17.57
2019-02-05T04:55:31.688Z,18.30
2019-02-05T04:58:17.145Z,18.67
2019-02-05T05:01:07.554Z,24.17
2019-02-05T05:04:19.659Z,17.87
2019-02-05T05:07:17.591Z,19.17
2019-02-05T05:09:58.490Z,17.50
2019-02-05T05:12:28.655Z,17.63
2019-02-05T05:14:58.262Z,19.77
2019-02-05T05:17:27.712Z,17.40
2019-02-05T05:19:57.419Z,16.20
2019-02-05T05:22:27.357Z,18.80
2019-02-05T05:24:57.163Z,15.60
2019-02-05T05:27:27.310Z,14.90
2019-02-05T05:29:56.943Z,18.73
2019-02-05T05:32:26.626Z,17.27
2019-02-05T05:34:56.256Z,19.00
2019-02-05T05:37:25.842Z,16.47
2019-02-05T05:39:55.374Z,15.73
2019-02-05T05:42:26.722Z,15.63
2019-02-05T05:44:56.169Z,16.90
2019-02-05T05:47:25.650Z,15.90
2019-02-05T05:49:55.203Z,17.27
2019-02-05T05:52:24.677Z,18.90
2019-02-05T05:54:54.275Z,16.30
2019-02-05T05:57:23.825Z,18.73
2019-02-05T05:59:53.607Z,16.33
2019-02-05T06:02:24.935Z,15.93
2019-02-05T06:04:54.493Z,15.20
2019-02-05T06:07:24.013Z,24.13
2019-02-05T06:09:53.512Z,16.70
2019-02-05T06:12:22.959Z,16.43
2019-02-05T06:14:52.616Z,14.37
2019-02-05T06:17:22.143Z,14.83
2019-02-05T06:19:51.662Z,17.73
2019-02-05T06:22:21.213Z,16.50
2019-02-05T06:24:50.666Z,16.90
2019-02-05T06:27:20.289Z,14.07
2019-02-05T06:29:50.129Z,14.37
2019-02-05T06:32:19.609Z,17.13
2019-02-05T06:34:49.056Z,16.13
2019-02-05T06:37:18.535Z,15.60
2019-02-05T06:39:48.031Z,14.87
2019-02-05T06:42:17.468Z,15.93
2019-02-05T06:44:47.403Z,15.70
2019-02-05T06:47:16.859Z,15.90
2019-02-05T06:49:46.342Z,16.10
2019-02-05T06:52:15.795Z,18.50
2019-02-05T06:54:45.256Z,14.77
2019-02-05T06:57:14.704Z,15.43
2019-02-05T06:59:44.289Z,15.40
2019-02-05T07:02:13.988Z,17.87
2019-02-05T07:04:43.514Z,16.10
2019-02-05T07:07:12.965Z,14.87
2019-02-05T07:09:42.983Z,15.80
2019-02-05T07:12:12.636Z,15.77
2019-02-05T07:14:42.094Z,14.60
2019-02-05T07:17:11.653Z,16.77
2019-02-05T07:19:41.102Z,19.87
2019-02-05T07:22:10.567Z,15.57
2019-02-05T07:24:40.089Z,18.50
2019-02-05T07:27:09.546Z,17.80
2019-02-05T07:29:39.140Z,23.17
2019-02-05T07:32:09.144Z,16.00
2019-02-05T07:34:38.604Z,21.60
2019-02-05T07:37:08.089Z,20.40
2019-02-05T07:39:37.574Z,20.73
2019-02-05T07:42:07.269Z,20.60
2019-02-05T07:44:36.721Z,16.43
2019-02-05T07:47:06.252Z,15.43
2019-02-05T07:49:36.010Z,17.07
2019-02-05T07:54:48.304Z,18.83
2019-02-05T07:57:17.761Z,16.10
2019-02-05T07:59:47.293Z,20.10
2019-02-05T08:02:16.731Z,18.83
2019-02-05T08:04:46.365Z,19.60
2019-02-05T08:07:15.845Z,16.40
2019-02-05T08:09:45.293Z,17.50
2019-02-05T08:12:14.858Z,20.80
2019-02-05T08:14:44.519Z,19.57
2019-02-05T08:17:13.969Z,17.77
2019-02-05T08:19:43.446Z,18.17
2019-02-05T08:22:13.308Z,19.00
2019-02-05T08:24:42.751Z,17.60
2019-02-05T08:27:12.241Z,20.00
2019-02-05T08:29:41.698Z,17.97
2019-02-05T08:32:11.173Z,18.30
2019-02-05T08:34:40.643Z,17.67
2019-02-05T08:37:10.095Z,18.43
2019-02-05T08:39:39.625Z,26.10
2019-02-05T08:42:09.376Z,38.13
2019-02-05T08:44:38.830Z,29.57
2019-02-05T08:47:08.359Z,24.80
2019-02-05T08:49:37.818Z,26.20
2019-02-05T08:52:07.384Z,23.20
2019-02-05T08:54:36.976Z,19.10
2019-02-05T08:57:06.451Z,21.33
2019-02-05T08:59:35.947Z,19.63
2019-02-05T09:02:05.801Z,26.43
2019-02-05T09:04:35.254Z,20.63
2019-02-05T09:07:05.113Z,33.00
2019-02-05T09:09:34.568Z,20.43
2019-02-05T09:12:04.269Z,31.67
2019-02-05T09:14:33.760Z,19.47
2019-02-05T09:17:03.216Z,24.40
2019-02-05T09:19:32.714Z,30.73
2019-02-05T09:22:02.175Z,20.70
2019-02-05T09:24:31.626Z,22.53
2019-02-05T09:27:01.156Z,25.47
2019-02-05T09:29:33.369Z,25.03
2019-02-05T09:32:01.833Z,20.77
2019-02-05T09:34:31.315Z,20.60
2019-02-05T09:37:00.789Z,18.97
2019-02-05T09:39:30.248Z,25.40
2019-02-05T09:42:00.007Z,23.30
2019-02-05T09:44:31.526Z,20.10
2019-02-05T09:47:00.925Z,21.50
2019-02-05T09:49:30.405Z,26.47
2019-02-05T09:51:59.890Z,27.87
2019-02-05T09:54:29.347Z,22.23
2019-02-05T09:56:58.797Z,30.07
2019-02-05T09:59:28.671Z,30.13
2019-02-05T10:01:58.120Z,29.27
2019-02-05T10:04:27.631Z,29.53
2019-02-05T10:06:57.081Z,26.40
2019-02-05T10:09:26.572Z,20.33
2019-02-05T10:11:56.027Z,19.40
2019-02-05T10:14:25.504Z,31.40
2019-02-05T10:16:55.139Z,18.60
2019-02-05T10:19:24.623Z,20.00
2019-02-05T10:21:54.158Z,17.87
2019-02-05T10:24:24.065Z,22.10
2019-02-05T10:26:53.511Z,25.50
2019-02-05T10:29:22.997Z,24.80
2019-02-05T10:31:52.970Z,25.33
2019-02-05T10:34:33.594Z,25.30
2019-02-05T10:36:53.775Z,23.33
2019-02-05T10:39:23.290Z,16.53
2019-02-05T10:41:52.895Z,27.27
2019-02-05T10:44:22.341Z,18.00
2019-02-05T10:46:51.832Z,21.40
2019-02-05T10:49:21.302Z,17.20
2019-02-05T10:51:50.751Z,15.50
2019-02-05T10:54:20.241Z,17.20
2019-02-05T10:56:49.724Z,16.33
2019-02-05T10:59:19.172Z,16.30
2019-02-05T11:01:48.660Z,16.93
2019-02-05T11:04:18.394Z,17.10
2019-02-05T11:06:47.888Z,17.17
2019-02-05T11:09:17.518Z,20.20
2019-02-05T11:11:46.961Z,15.37
2019-02-05T11:14:16.460Z,15.70
2019-02-05T11:16:45.918Z,18.00
2019-02-05T11:19:15.866Z,17.13
2019-02-05T11:21:45.356Z,17.30
2019-02-05T11:24:14.810Z,16.90
2019-02-05T11:26:44.265Z,20.47
2019-02-05T11:29:13.939Z,21.70
2019-02-05T11:31:43.387Z,13.37
2019-02-05T11:34:12.842Z,17.47
2019-02-05T11:36:42.511Z,25.47
2019-02-05T11:39:16.390Z,17.37
2019-02-05T11:41:45.913Z,24.97
2019-02-05T11:44:15.395Z,21.37
2019-02-05T11:46:44.855Z,13.73
2019-02-05T11:49:14.302Z,21.37
2019-02-05T11:51:45.346Z,15.83
2019-02-05T11:54:14.807Z,17.93
2019-02-05T11:56:45.023Z,17.30
2019-02-05T11:59:14.506Z,16.90
2019-02-05T12:01:43.957Z,20.70
2019-02-05T12:04:13.413Z,21.00
2019-02-05T12:06:43.942Z,18.30
2019-02-05T12:09:21.085Z,22.40
2019-02-05T12:11:50.570Z,15.50
2019-02-05T12:14:20.025Z,18.23
2019-02-05T12:16:49.545Z,23.17
2019-02-05T12:19:19.033Z,17.47
2019-02-05T12:21:48.484Z,22.57
2019-02-05T12:24:18.115Z,20.63
2019-02-05T12:26:47.609Z,14.50
2019-02-05T12:29:17.064Z,17.77
2019-02-05T12:31:46.518Z,22.83
2019-02-05T12:34:15.996Z,20.57
2019-02-05T12:36:45.514Z,21.10
2019-02-05T12:39:19.221Z,20.17
2019-02-05T12:41:48.777Z,19.90
2019-02-05T12:44:18.290Z,17.70
2019-02-05T12:46:47.918Z,23.47
2019-02-05T12:49:17.403Z,20.37
2019-02-05T12:51:46.866Z,20.57
2019-02-05T12:54:16.595Z,20.60
2019-02-05T12:56:46.350Z,17.13
2019-02-05T12:59:15.792Z,18.80
2019-02-05T13:01:45.245Z,21.50
2019-02-05T13:04:14.742Z,23.13
2019-02-05T13:06:44.183Z,25.20
2019-02-05T13:09:13.820Z,21.93
2019-02-05T13:11:43.305Z,18.97
2019-02-05T13:14:12.757Z,18.77
2019-02-05T13:16:42.206Z,21.90
2019-02-05T13:19:11.704Z,17.90
2019-02-05T13:21:41.166Z,26.07
2019-02-05T13:24:10.622Z,25.90
2019-02-05T13:26:40.116Z,22.07
2019-02-05T13:29:09.578Z,26.50
2019-02-05T13:31:39.033Z,22.20
2019-02-05T13:34:09.055Z,23.53
2019-02-05T13:36:38.477Z,22.60
2019-02-05T13:39:11.876Z,21.20
2019-02-05T13:41:41.361Z,23.40
2019-02-05T13:44:10.814Z,21.63
2019-02-05T13:46:40.341Z,19.50
2019-02-05T13:49:09.897Z,22.17
2019-02-05T13:51:39.759Z,22.87
2019-02-05T13:54:09.282Z,14.30
2019-02-05T13:56:38.777Z,21.43
2019-02-05T13:59:08.234Z,22.97
2019-02-05T14:01:37.690Z,21.10
2019-02-05T14:04:07.172Z,22.27
2019-02-05T14:06:36.800Z,22.37
2019-02-05T14:09:11.085Z,23.97
2019-02-05T14:11:40.663Z,25.97
2019-02-05T14:14:10.239Z,22.10
2019-02-05T14:16:39.788Z,23.27
2019-02-05T14:19:09.303Z,20.43
2019-02-05T14:21:38.833Z,19.17
2019-02-05T14:24:08.314Z,23.23
2019-02-05T14:26:37.762Z,25.17
2019-02-05T14:29:07.209Z,26.07
2019-02-05T14:31:36.711Z,16.47
2019-02-05T14:34:06.413Z,18.20
2019-02-05T14:36:35.826Z,23.30
2019-02-05T14:39:09.489Z,23.30
2019-02-05T14:41:39.013Z,21.80
2019-02-05T14:44:08.535Z,24.97
2019-02-05T14:46:38.053Z,25.80
2019-02-05T14:49:07.887Z,23.13
2019-02-05T14:51:37.348Z,25.80
2019-02-05T14:54:06.967Z,22.77
2019-02-05T14:56:36.417Z,21.90
2019-02-05T14:59:06.404Z,23.60
2019-02-05T15:01:42.786Z,25.40
2019-02-05T15:04:07.355Z,22.30
2019-02-05T15:06:36.760Z,21.73
2019-02-05T15:09:08.365Z,13.93
2019-02-05T15:11:37.927Z,24.93
2019-02-05T15:14:07.571Z,25.63
2019-02-05T15:16:37.061Z,30.33
2019-02-05T15:19:06.515Z,24.87
2019-02-05T15:21:35.969Z,28.30
2019-02-05T15:24:06.117Z,32.50
2019-02-05T15:26:35.571Z,32.10
2019-02-05T15:29:05.360Z,36.77
2019-02-05T15:31:35.237Z,30.60
2019-02-05T15:34:04.731Z,32.03
2019-02-05T15:36:34.187Z,30.67
2019-02-05T15:39:05.210Z,31.60
2019-02-05T15:41:34.662Z,27.57
2019-02-05T15:44:04.185Z,23.30
2019-02-05T15:46:34.534Z,22.53
2019-02-05T15:49:04.064Z,24.43
2019-02-05T15:51:33.510Z,23.30
2019-02-05T15:54:02.987Z,25.40
2019-02-05T15:56:32.507Z,22.80
2019-02-05T15:59:02.039Z,29.00
2019-02-05T16:01:31.535Z,31.27
2019-02-05T16:04:01.897Z,33.33
2019-02-05T16:06:31.357Z,25.87
2019-02-05T16:09:00.832Z,28.60
2019-02-05T16:11:30.281Z,25.73
2019-02-05T16:13:59.740Z,21.57
2019-02-05T16:16:29.409Z,27.10
2019-02-05T16:18:58.864Z,31.40
2019-02-05T16:21:28.318Z,34.97
2019-02-05T16:23:58.374Z,29.67
2019-02-05T16:26:27.979Z,25.70
2019-02-05T16:28:57.440Z,20.40
2019-02-05T16:31:28.016Z,23.53
2019-02-05T16:33:57.614Z,25.83
2019-02-05T16:36:27.144Z,25.67
2019-02-05T16:38:56.624Z,31.40
2019-02-05T16:41:26.076Z,29.17
2019-02-05T16:43:55.529Z,28.87
2019-02-05T16:46:25.015Z,27.47
2019-02-05T16:48:54.470Z,23.80
2019-02-05T16:51:23.915Z,24.13
2019-02-05T16:53:53.724Z,25.17
2019-02-05T16:56:23.177Z,24.10
2019-02-05T16:58:52.636Z,24.70
2019-02-05T17:01:22.330Z,23.80
2019-02-05T17:03:51.780Z,20.60
2019-02-05T17:06:22.979Z,19.90
2019-02-05T17:08:52.639Z,22.57
2019-02-05T17:11:22.084Z,21.23
2019-02-05T17:13:51.533Z,25.30
2019-02-05T17:16:21.010Z,25.43
2019-02-05T17:18:50.603Z,28.57
2019-02-05T17:21:20.051Z,33.33
2019-02-05T17:23:49.552Z,21.20
2019-02-05T17:26:19.001Z,24.20
2019-02-05T17:28:48.520Z,26.50
2019-02-05T17:31:18.046Z,27.70
2019-02-05T17:33:47.673Z,24.73
2019-02-05T17:36:17.128Z,23.67
2019-02-05T17:38:46.676Z,24.90
2019-02-05T17:41:16.119Z,19.87
2019-02-05T17:43:45.714Z,23.97
2019-02-05T17:46:15.161Z,28.97
2019-02-05T17:48:44.615Z,22.13
2019-02-05T17:51:14.156Z,19.20
2019-02-05T17:53:43.604Z,20.27
2019-02-05T17:56:13.226Z,22.30
2019-02-05T17:58:42.991Z,23.20
2019-02-05T18:01:12.474Z,32.20
2019-02-05T18:03:42.268Z,26.53
2019-02-05T18:06:11.749Z,25.90
2019-02-05T18:08:42.189Z,20.97
2019-02-05T18:11:11.771Z,24.27
2019-02-05T18:13:41.639Z,19.97
2019-02-05T18:16:11.501Z,24.40
2019-02-05T18:18:41.059Z,23.70
2019-02-05T18:21:10.525Z,25.10
2019-02-05T18:23:40.039Z,20.93
2019-02-05T18:26:09.694Z,22.53
2019-02-05T18:28:39.463Z,23.10
2019-02-05T18:31:09.189Z,23.47
2019-02-05T18:33:38.634Z,22.40
2019-02-05T18:36:08.242Z,23.10
2019-02-05T18:38:37.944Z,21.70
2019-02-05T18:41:07.736Z,23.23
2019-02-05T18:43:37.383Z,22.73
2019-02-05T18:46:06.950Z,22.67
2019-02-05T18:48:36.426Z,32.20
2019-02-05T18:51:06.148Z,26.13
2019-02-05T18:53:35.603Z,29.27
2019-02-05T18:56:05.904Z,21.30
2019-02-05T18:58:35.361Z,22.73
2019-02-05T19:01:06.164Z,21.80
2019-02-05T19:03:35.781Z,33.57
2019-02-05T19:06:05.465Z,26.13
2019-02-05T19:08:34.944Z,22.30
2019-02-05T19:11:04.465Z,23.07
2019-02-05T19:13:33.957Z,25.87
2019-02-05T19:16:03.402Z,22.70
2019-02-05T19:18:33.933Z,23.93
2019-02-05T19:21:03.418Z,22.43
2019-02-05T19:23:32.875Z,27.23
2019-02-05T19:26:10.091Z,27.07
2019-02-05T19:28:39.692Z,25.10
2019-02-05T19:31:10.949Z,23.10
2019-02-05T19:33:40.432Z,25.20
2019-02-05T19:36:09.981Z,24.47
2019-02-05T19:38:39.476Z,27.50
2019-02-05T19:41:08.920Z,21.83
2019-02-05T19:43:38.479Z,25.53
2019-02-05T19:46:18.596Z,27.43
2019-02-05T19:48:55.668Z,23.63
2019-02-05T19:51:24.946Z,24.50
2019-02-05T19:53:54.414Z,26.87
2019-02-05T19:56:23.908Z,26.27
2019-02-05T19:58:53.348Z,22.83
2019-02-05T20:01:22.834Z,24.87
2019-02-05T20:03:52.281Z,23.80
2019-02-05T20:06:21.765Z,21.97
2019-02-05T20:08:51.219Z,24.23
2019-02-05T20:11:20.857Z,24.60
2019-02-05T20:13:50.357Z,26.27
2019-02-05T20:16:19.801Z,27.53
2019-02-05T20:18:49.305Z,24.60
2019-02-05T20:21:18.757Z,24.53
2019-02-05T20:23:48.217Z,25.80
2019-02-05T20:26:18.095Z,26.40
2019-02-05T20:28:47.546Z,25.90
2019-02-05T20:31:17.007Z,25.97
2019-02-05T20:33:49.971Z,25.83
2019-02-05T20:36:17.688Z,23.90
2019-02-05T20:38:47.171Z,26.90
2019-02-05T20:41:17.010Z,23.87
2019-02-05T20:43:46.464Z,23.13
2019-02-05T20:46:15.919Z,20.37
2019-02-05T20:48:45.473Z,22.97
2019-02-05T20:51:15.070Z,23.93
2019-02-05T20:53:44.535Z,24.30
2019-02-05T20:56:14.226Z,25.90
2019-02-05T20:58:44.055Z,21.40
2019-02-05T21:01:13.559Z,27.90
2019-02-05T21:03:43.586Z,24.17
2019-02-05T21:06:13.094Z,24.47
2019-02-05T21:08:42.557Z,26.40
2019-02-05T21:11:12.050Z,22.20
2019-02-05T21:13:41.503Z,22.37
2019-02-05T21:16:10.950Z,22.17
2019-02-05T21:18:40.443Z,24.53
2019-02-05T21:21:09.916Z,24.17
2019-02-05T21:23:39.353Z,26.63
2019-02-05T21:26:08.991Z,25.53
2019-02-05T21:28:38.442Z,24.37
2019-02-05T21:31:07.970Z,24.77
2019-02-05T21:33:37.468Z,23.97
2019-02-05T21:36:06.916Z,22.03
2019-02-05T21:38:36.364Z,23.17
2019-02-05T21:41:06.025Z,22.93
2019-02-05T21:43:35.471Z,21.57
2019-02-05T21:46:05.606Z,21.00
2019-02-05T21:48:35.111Z,21.97
2019-02-05T21:51:04.725Z,21.20
2019-02-05T21:53:34.172Z,24.50
2019-02-05T21:56:03.673Z,21.67
2019-02-05T21:58:33.132Z,26.27
2019-02-05T22:01:02.761Z,22.80
2019-02-05T22:03:32.282Z,27.07
2019-02-05T22:06:01.745Z,20.10
2019-02-05T22:08:31.251Z,25.77
2019-02-05T22:11:00.774Z,25.63
2019-02-05T22:13:30.239Z,21.57
2019-02-05T22:15:59.700Z,24.40
2019-02-05T22:18:29.435Z,22.93
2019-02-05T22:20:58.888Z,25.57
2019-02-05T22:23:28.346Z,15.93
2019-02-05T22:25:57.827Z,22.83
2019-02-05T22:28:27.282Z,25.10
2019-02-05T22:30:56.735Z,24.57
2019-02-05T22:33:28.138Z,22.77
2019-02-05T22:35:57.407Z,20.77
2019-02-05T22:38:26.864Z,21.40
2019-02-05T22:40:56.352Z,22.80
2019-02-05T22:43:25.810Z,25.00
2019-02-05T22:45:55.263Z,22.80
2019-02-05T22:48:24.840Z,24.50
2019-02-05T22:50:54.295Z,24.03
2019-02-05T22:53:24.233Z,22.63
2019-02-05T22:55:53.745Z,23.83
2019-02-05T22:58:23.478Z,27.70
2019-02-05T23:01:18.153Z,26.90
2019-02-05T23:03:52.934Z,24.10
2019-02-05T23:06:43.943Z,22.27
2019-02-05T23:09:21.266Z,22.00
2019-02-05T23:12:10.463Z,23.60
2019-02-05T23:14:39.967Z,23.63
2019-02-05T23:17:09.428Z,22.07
2019-02-05T23:19:38.915Z,24.07
2019-02-05T23:22:08.371Z,26.03
2019-02-05T23:24:37.829Z,21.17
2019-02-05T23:27:07.305Z,25.03
2019-02-05T23:29:36.901Z,22.10
2019-02-05T23:32:06.520Z,21.53
2019-02-05T23:34:36.015Z,18.50
2019-02-05T23:37:05.695Z,18.27
2019-02-05T23:39:35.157Z,22.67
2019-02-05T23:42:04.896Z,18.70
2019-02-05T23:44:34.350Z,23.27
2019-02-05T23:47:03.805Z,21.67
2019-02-05T23:49:33.287Z,22.73
2019-02-05T23:52:02.917Z,20.87
2019-02-05T23:54:32.384Z,22.20
2019-02-05T23:57:01.863Z,25.20
2019-02-05T23:59:31.324Z,27.30
